sensor_id;sensor_type;location;lat;lon;timestamp;P1;durP1;ratioP1;P2;durP2;ratioP2
75450;SDS011;64029;48.244;9.188;2022-12-13T00:01:42;18.60;;;8.10;;
75450;SDS011;64029;48.244;9.188;2022-12-13T00:04:10;14.10;;;8.43;;
75450;SDS011;64029;48.244;9.188;2022-12-13T00:06:37;14.80;;;8.43;;
75450;SDS011;64029;48.244;9.188;2022-12-13T00:09:05;18.80;;;8.70;;
75450;SDS011;64029;48.244;9.188;2022-12-13T00:11:31;12.03;;;7.17;;
75450;SDS011;64029;48.244;9.188;2022-12-13T00:14:00;18.67;;;8.20;;
75450;SDS011;64029;48.244;9.188;2022-12-13T00:16:27;11.43;;;8.03;;
75450;SDS011;64029;48.244;9.188;2022-12-13T00:18:54;14.47;;;7.80;;
75450;SDS011;64029;48.244;9.188;2022-12-13T00:21:23;21.00;;;8.80;;
75450;SDS011;64029;48.244;9.188;2022-12-13T00:23:51;22.30;;;11.47;;
75450;SDS011;64029;48.244;9.188;2022-12-13T00:26:19;14.73;;;8.37;;
75450;SDS011;64029;48.244;9.188;2022-12-13T00:28:47;10.90;;;6.93;;
75450;SDS011;64029;48.244;9.188;2022-12-13T00:31:17;14.47;;;8.83;;
75450;SDS011;64029;48.244;9.188;2022-12-13T00:33:44;18.93;;;7.97;;
75450;SDS011;64029;48.244;9.188;2022-12-13T00:36:11;16.07;;;7.27;;
75450;SDS011;64029;48.244;9.188;2022-12-13T00:38:38;16.53;;;7.23;;
75450;SDS011;64029;48.244;9.188;2022-12-13T00:41:09;13.83;;;8.07;;
75450;SDS011;64029;48.244;9.188;2022-12-13T00:43:37;15.47;;;8.40;;
75450;SDS011;64029;48.244;9.188;2022-12-13T00:46:04;14.70;;;7.37;;
75450;SDS011;64029;48.244;9.188;2022-12-13T00:48:33;17.20;;;7.47;;
75450;SDS011;64029;48.244;9.188;2022-12-13T00:51:04;11.10;;;6.70;;
75450;SDS011;64029;48.244;9.188;2022-12-13T00:53:31;12.10;;;7.17;;
75450;SDS011;64029;48.244;9.188;2022-12-13T00:55:58;20.63;;;7.90;;
75450;SDS011;64029;48.244;9.188;2022-12-13T00:58:25;14.00;;;7.10;;
75450;SDS011;64029;48.244;9.188;2022-12-13T01:00:52;12.37;;;6.60;;
75450;SDS011;64029;48.244;9.188;2022-12-13T01:03:19;14.50;;;6.87;;
75450;SDS011;64029;48.244;9.188;2022-12-13T01:05:50;11.10;;;7.07;;
75450;SDS011;64029;48.244;9.188;2022-12-13T01:08:17;14.27;;;7.63;;
75450;SDS011;64029;48.244;9.188;2022-12-13T01:10:44;13.90;;;6.70;;
75450;SDS011;64029;48.244;9.188;2022-12-13T01:13:12;14.57;;;7.70;;
75450;SDS011;64029;48.244;9.188;2022-12-13T01:15:40;12.73;;;7.80;;
75450;SDS011;64029;48.244;9.188;2022-12-13T01:18:07;16.07;;;6.83;;
75450;SDS011;64029;48.244;9.188;2022-12-13T01:20:34;16.57;;;8.10;;
75450;SDS011;64029;48.244;9.188;2022-12-13T01:23:03;12.87;;;8.37;;
75450;SDS011;64029;48.244;9.188;2022-12-13T01:25:30;12.37;;;7.70;;
75450;SDS011;64029;48.244;9.188;2022-12-13T01:27:57;14.10;;;7.30;;
75450;SDS011;64029;48.244;9.188;2022-12-13T01:30:24;12.80;;;8.27;;
75450;SDS011;64029;48.244;9.188;2022-12-13T01:32:51;15.13;;;7.67;;
75450;SDS011;64029;48.244;9.188;2022-12-13T01:35:18;15.90;;;8.70;;
75450;SDS011;64029;48.244;9.188;2022-12-13T01:37:45;15.90;;;6.80;;
75450;SDS011;64029;48.244;9.188;2022-12-13T01:40:13;15.93;;;7.83;;
75450;SDS011;64029;48.244;9.188;2022-12-13T01:42:40;15.50;;;7.03;;
75450;SDS011;64029;48.244;9.188;2022-12-13T01:45:14;12.23;;;7.40;;
75450;SDS011;64029;48.244;9.188;2022-12-13T01:47:50;22.10;;;8.17;;
75450;SDS011;64029;48.244;9.188;2022-12-13T01:50:20;16.20;;;7.60;;
75450;SDS011;64029;48.244;9.188;2022-12-13T01:52:50;13.40;;;7.30;;
75450;SDS011;64029;48.244;9.188;2022-12-13T01:55:19;14.60;;;7.83;;
75450;SDS011;64029;48.244;9.188;2022-12-13T01:57:48;17.93;;;8.73;;
75450;SDS011;64029;48.244;9.188;2022-12-13T02:00:17;15.93;;;7.60;;
75450;SDS011;64029;48.244;9.188;2022-12-13T02:02:44;19.77;;;8.37;;
75450;SDS011;64029;48.244;9.188;2022-12-13T02:05:14;15.73;;;7.90;;
75450;SDS011;64029;48.244;9.188;2022-12-13T02:07:46;17.07;;;8.47;;
75450;SDS011;64029;48.244;9.188;2022-12-13T02:10:14;15.07;;;7.87;;
75450;SDS011;64029;48.244;9.188;2022-12-13T02:12:42;19.13;;;8.60;;
75450;SDS011;64029;48.244;9.188;2022-12-13T02:15:10;28.80;;;9.80;;
75450;SDS011;64029;48.244;9.188;2022-12-13T02:17:45;23.43;;;9.67;;
75450;SDS011;64029;48.244;9.188;2022-12-13T02:20:42;21.93;;;10.60;;
75450;SDS011;64029;48.244;9.188;2022-12-13T02:23:47;18.10;;;8.30;;
75450;SDS011;64029;48.244;9.188;2022-12-13T02:26:53;20.13;;;8.63;;
75450;SDS011;64029;48.244;9.188;2022-12-13T02:29:45;19.37;;;8.73;;
75450;SDS011;64029;48.244;9.188;2022-12-13T02:32:28;21.67;;;10.50;;
75450;SDS011;64029;48.244;9.188;2022-12-13T02:35:01;15.90;;;8.90;;
75450;SDS011;64029;48.244;9.188;2022-12-13T02:37:31;17.27;;;8.93;;
75450;SDS011;64029;48.244;9.188;2022-12-13T02:40:10;23.87;;;8.87;;
75450;SDS011;64029;48.244;9.188;2022-12-13T02:42:42;20.97;;;8.60;;
75450;SDS011;64029;48.244;9.188;2022-12-13T02:45:13;15.53;;;7.00;;
75450;SDS011;64029;48.244;9.188;2022-12-13T02:47:45;16.17;;;8.07;;
75450;SDS011;64029;48.244;9.188;2022-12-13T02:50:13;16.97;;;7.50;;
75450;SDS011;64029;48.244;9.188;2022-12-13T02:52:41;23.13;;;9.30;;
75450;SDS011;64029;48.244;9.188;2022-12-13T02:55:11;27.30;;;11.50;;
75450;SDS011;64029;48.244;9.188;2022-12-13T02:57:40;19.20;;;8.93;;
75450;SDS011;64029;48.244;9.188;2022-12-13T03:00:09;15.63;;;7.80;;
75450;SDS011;64029;48.244;9.188;2022-12-13T03:02:41;20.47;;;8.57;;
75450;SDS011;64029;48.244;9.188;2022-12-13T03:05:20;14.53;;;8.33;;
75450;SDS011;64029;48.244;9.188;2022-12-13T03:08:15;14.67;;;7.40;;
75450;SDS011;64029;48.244;9.188;2022-12-13T03:10:48;20.60;;;9.00;;
75450;SDS011;64029;48.244;9.188;2022-12-13T03:13:24;32.77;;;12.57;;
75450;SDS011;64029;48.244;9.188;2022-12-13T03:16:04;30.97;;;14.90;;
75450;SDS011;64029;48.244;9.188;2022-12-13T03:18:37;30.33;;;13.13;;
75450;SDS011;64029;48.244;9.188;2022-12-13T03:21:06;18.90;;;9.17;;
75450;SDS011;64029;48.244;9.188;2022-12-13T03:23:34;58.77;;;24.57;;
75450;SDS011;64029;48.244;9.188;2022-12-13T03:26:04;141.97;;;49.37;;
75450;SDS011;64029;48.244;9.188;2022-12-13T03:28:34;189.13;;;61.60;;
75450;SDS011;64029;48.244;9.188;2022-12-13T03:31:01;89.00;;;34.50;;
75450;SDS011;64029;48.244;9.188;2022-12-13T03:33:28;55.30;;;24.30;;
75450;SDS011;64029;48.244;9.188;2022-12-13T03:35:56;32.37;;;14.40;;
75450;SDS011;64029;48.244;9.188;2022-12-13T03:38:23;20.97;;;10.03;;
75450;SDS011;64029;48.244;9.188;2022-12-13T03:40:51;16.17;;;8.37;;
75450;SDS011;64029;48.244;9.188;2022-12-13T03:43:21;15.47;;;7.40;;
75450;SDS011;64029;48.244;9.188;2022-12-13T03:45:49;16.63;;;7.57;;
75450;SDS011;64029;48.244;9.188;2022-12-13T03:48:16;9.53;;;6.40;;
75450;SDS011;64029;48.244;9.188;2022-12-13T03:50:43;12.00;;;5.80;;
75450;SDS011;64029;48.244;9.188;2022-12-13T03:53:11;17.73;;;8.80;;
75450;SDS011;64029;48.244;9.188;2022-12-13T03:55:38;33.83;;;15.40;;
75450;SDS011;64029;48.244;9.188;2022-12-13T03:58:05;21.83;;;12.10;;
75450;SDS011;64029;48.244;9.188;2022-12-13T04:00:32;18.80;;;8.60;;
75450;SDS011;64029;48.244;9.188;2022-12-13T04:02:59;16.40;;;8.87;;
75450;SDS011;64029;48.244;9.188;2022-12-13T04:05:26;15.60;;;8.67;;
75450;SDS011;64029;48.244;9.188;2022-12-13T04:07:54;16.20;;;8.60;;
75450;SDS011;64029;48.244;9.188;2022-12-13T04:10:22;22.40;;;10.33;;
75450;SDS011;64029;48.244;9.188;2022-12-13T04:12:50;28.30;;;11.00;;
75450;SDS011;64029;48.244;9.188;2022-12-13T04:15:34;29.57;;;11.93;;
75450;SDS011;64029;48.244;9.188;2022-12-13T04:18:01;24.10;;;10.80;;
75450;SDS011;64029;48.244;9.188;2022-12-13T04:20:28;20.23;;;10.20;;
75450;SDS011;64029;48.244;9.188;2022-12-13T04:22:55;22.23;;;12.10;;
75450;SDS011;64029;48.244;9.188;2022-12-13T04:25:23;22.70;;;11.07;;
75450;SDS011;64029;48.244;9.188;2022-12-13T04:27:50;19.27;;;9.17;;
75450;SDS011;64029;48.244;9.188;2022-12-13T04:30:17;16.40;;;9.27;;
75450;SDS011;64029;48.244;9.188;2022-12-13T04:32:43;17.23;;;8.40;;
75450;SDS011;64029;48.244;9.188;2022-12-13T04:35:11;18.70;;;8.73;;
75450;SDS011;64029;48.244;9.188;2022-12-13T04:37:37;10.67;;;7.07;;
75450;SDS011;64029;48.244;9.188;2022-12-13T04:40:05;21.87;;;8.80;;
75450;SDS011;64029;48.244;9.188;2022-12-13T04:42:34;20.03;;;10.33;;
75450;SDS011;64029;48.244;9.188;2022-12-13T04:45:00;16.00;;;9.33;;
75450;SDS011;64029;48.244;9.188;2022-12-13T04:47:28;17.47;;;8.40;;
75450;SDS011;64029;48.244;9.188;2022-12-13T04:49:54;15.50;;;7.57;;
75450;SDS011;64029;48.244;9.188;2022-12-13T04:52:21;25.47;;;8.53;;
75450;SDS011;64029;48.244;9.188;2022-12-13T04:54:48;15.60;;;7.80;;
75450;SDS011;64029;48.244;9.188;2022-12-13T04:57:16;21.57;;;8.40;;
75450;SDS011;64029;48.244;9.188;2022-12-13T04:59:44;16.13;;;7.97;;
75450;SDS011;64029;48.244;9.188;2022-12-13T05:02:11;16.43;;;7.77;;
75450;SDS011;64029;48.244;9.188;2022-12-13T05:04:38;16.27;;;8.57;;
75450;SDS011;64029;48.244;9.188;2022-12-13T05:07:05;22.03;;;9.60;;
75450;SDS011;64029;48.244;9.188;2022-12-13T05:09:31;31.17;;;11.53;;
75450;SDS011;64029;48.244;9.188;2022-12-13T05:11:58;21.20;;;9.87;;
75450;SDS011;64029;48.244;9.188;2022-12-13T05:14:25;18.10;;;8.93;;
75450;SDS011;64029;48.244;9.188;2022-12-13T05:16:54;13.70;;;7.50;;
75450;SDS011;64029;48.244;9.188;2022-12-13T05:19:20;12.63;;;6.50;;
75450;SDS011;64029;48.244;9.188;2022-12-13T05:21:47;12.00;;;7.37;;
75450;SDS011;64029;48.244;9.188;2022-12-13T05:24:14;14.53;;;7.80;;
75450;SDS011;64029;48.244;9.188;2022-12-13T05:26:41;19.73;;;9.43;;
75450;SDS011;64029;48.244;9.188;2022-12-13T05:29:08;17.00;;;8.37;;
75450;SDS011;64029;48.244;9.188;2022-12-13T05:31:35;15.50;;;8.63;;
75450;SDS011;64029;48.244;9.188;2022-12-13T05:34:03;13.03;;;8.30;;
75450;SDS011;64029;48.244;9.188;2022-12-13T05:36:30;18.80;;;9.20;;
75450;SDS011;64029;48.244;9.188;2022-12-13T05:38:57;16.47;;;10.37;;
75450;SDS011;64029;48.244;9.188;2022-12-13T05:41:24;27.73;;;12.27;;
75450;SDS011;64029;48.244;9.188;2022-12-13T05:43:54;27.27;;;13.50;;
75450;SDS011;64029;48.244;9.188;2022-12-13T05:46:21;26.40;;;11.77;;
75450;SDS011;64029;48.244;9.188;2022-12-13T05:48:48;22.33;;;10.87;;
75450;SDS011;64029;48.244;9.188;2022-12-13T05:51:16;19.37;;;11.20;;
75450;SDS011;64029;48.244;9.188;2022-12-13T05:53:43;24.73;;;12.17;;
75450;SDS011;64029;48.244;9.188;2022-12-13T05:56:11;27.30;;;14.20;;
75450;SDS011;64029;48.244;9.188;2022-12-13T05:58:38;28.40;;;14.63;;
75450;SDS011;64029;48.244;9.188;2022-12-13T06:01:06;33.20;;;16.10;;
75450;SDS011;64029;48.244;9.188;2022-12-13T06:03:35;19.43;;;10.33;;
75450;SDS011;64029;48.244;9.188;2022-12-13T06:06:02;16.67;;;8.50;;
75450;SDS011;64029;48.244;9.188;2022-12-13T06:08:32;33.07;;;14.37;;
75450;SDS011;64029;48.244;9.188;2022-12-13T06:10:59;35.03;;;16.43;;
75450;SDS011;64029;48.244;9.188;2022-12-13T06:13:27;28.40;;;15.00;;
75450;SDS011;64029;48.244;9.188;2022-12-13T06:15:59;26.27;;;13.63;;
75450;SDS011;64029;48.244;9.188;2022-12-13T06:18:28;19.53;;;9.50;;
75450;SDS011;64029;48.244;9.188;2022-12-13T06:20:56;12.20;;;6.60;;
75450;SDS011;64029;48.244;9.188;2022-12-13T06:23:24;19.47;;;10.07;;
75450;SDS011;64029;48.244;9.188;2022-12-13T06:25:52;24.07;;;14.47;;
75450;SDS011;64029;48.244;9.188;2022-12-13T06:28:19;47.93;;;19.80;;
75450;SDS011;64029;48.244;9.188;2022-12-13T06:30:46;37.70;;;20.53;;
75450;SDS011;64029;48.244;9.188;2022-12-13T06:33:16;30.47;;;13.80;;
75450;SDS011;64029;48.244;9.188;2022-12-13T06:35:43;22.20;;;12.40;;
75450;SDS011;64029;48.244;9.188;2022-12-13T06:38:10;21.37;;;11.20;;
75450;SDS011;64029;48.244;9.188;2022-12-13T06:40:37;40.43;;;17.53;;
75450;SDS011;64029;48.244;9.188;2022-12-13T06:43:05;38.03;;;22.67;;
75450;SDS011;64029;48.244;9.188;2022-12-13T06:45:32;35.57;;;14.73;;
75450;SDS011;64029;48.244;9.188;2022-12-13T06:47:59;31.23;;;15.83;;
75450;SDS011;64029;48.244;9.188;2022-12-13T06:50:26;35.37;;;16.17;;
75450;SDS011;64029;48.244;9.188;2022-12-13T06:52:53;36.43;;;17.17;;
75450;SDS011;64029;48.244;9.188;2022-12-13T06:55:19;37.03;;;17.53;;
75450;SDS011;64029;48.244;9.188;2022-12-13T06:57:46;57.23;;;28.20;;
75450;SDS011;64029;48.244;9.188;2022-12-13T07:00:15;48.07;;;22.63;;
75450;SDS011;64029;48.244;9.188;2022-12-13T07:02:42;33.70;;;16.20;;
75450;SDS011;64029;48.244;9.188;2022-12-13T07:05:09;37.53;;;19.87;;
75450;SDS011;64029;48.244;9.188;2022-12-13T07:07:36;54.07;;;22.77;;
75450;SDS011;64029;48.244;9.188;2022-12-13T07:10:03;47.23;;;21.37;;
75450;SDS011;64029;48.244;9.188;2022-12-13T07:12:30;35.80;;;17.50;;
75450;SDS011;64029;48.244;9.188;2022-12-13T07:14:57;37.27;;;17.97;;
75450;SDS011;64029;48.244;9.188;2022-12-13T07:17:26;34.83;;;16.57;;
75450;SDS011;64029;48.244;9.188;2022-12-13T07:19:53;33.60;;;13.37;;
75450;SDS011;64029;48.244;9.188;2022-12-13T07:22:20;33.50;;;15.53;;
75450;SDS011;64029;48.244;9.188;2022-12-13T07:24:47;22.23;;;11.37;;
75450;SDS011;64029;48.244;9.188;2022-12-13T07:27:14;39.20;;;19.33;;
75450;SDS011;64029;48.244;9.188;2022-12-13T07:29:41;39.90;;;19.57;;
75450;SDS011;64029;48.244;9.188;2022-12-13T07:32:08;33.73;;;17.77;;
75450;SDS011;64029;48.244;9.188;2022-12-13T07:34:37;33.23;;;15.17;;
75450;SDS011;64029;48.244;9.188;2022-12-13T07:37:04;28.13;;;12.27;;
75450;SDS011;64029;48.244;9.188;2022-12-13T07:39:31;29.37;;;13.43;;
75450;SDS011;64029;48.244;9.188;2022-12-13T07:41:58;34.50;;;13.77;;
75450;SDS011;64029;48.244;9.188;2022-12-13T07:44:25;31.43;;;12.33;;
75450;SDS011;64029;48.244;9.188;2022-12-13T07:46:52;23.50;;;11.67;;
75450;SDS011;64029;48.244;9.188;2022-12-13T07:49:18;23.00;;;10.50;;
75450;SDS011;64029;48.244;9.188;2022-12-13T07:51:47;21.23;;;10.23;;
75450;SDS011;64029;48.244;9.188;2022-12-13T07:54:14;23.73;;;9.40;;
75450;SDS011;64029;48.244;9.188;2022-12-13T07:56:41;26.90;;;11.20;;
75450;SDS011;64029;48.244;9.188;2022-12-13T07:59:08;27.00;;;14.90;;
75450;SDS011;64029;48.244;9.188;2022-12-13T08:01:35;36.37;;;17.13;;
75450;SDS011;64029;48.244;9.188;2022-12-13T08:04:02;29.90;;;15.77;;
75450;SDS011;64029;48.244;9.188;2022-12-13T08:06:33;27.97;;;14.30;;
75450;SDS011;64029;48.244;9.188;2022-12-13T08:09:02;26.33;;;13.37;;
75450;SDS011;64029;48.244;9.188;2022-12-13T08:11:29;27.03;;;14.20;;
75450;SDS011;64029;48.244;9.188;2022-12-13T08:13:56;27.00;;;15.37;;
75450;SDS011;64029;48.244;9.188;2022-12-13T08:16:23;34.57;;;17.93;;
75450;SDS011;64029;48.244;9.188;2022-12-13T08:18:50;47.57;;;22.20;;
75450;SDS011;64029;48.244;9.188;2022-12-13T08:21:17;40.33;;;20.53;;
75450;SDS011;64029;48.244;9.188;2022-12-13T08:23:44;30.73;;;17.30;;
75450;SDS011;64029;48.244;9.188;2022-12-13T08:26:12;29.20;;;15.63;;
75450;SDS011;64029;48.244;9.188;2022-12-13T08:28:39;20.60;;;13.10;;
75450;SDS011;64029;48.244;9.188;2022-12-13T08:31:07;25.97;;;14.37;;
75450;SDS011;64029;48.244;9.188;2022-12-13T08:33:37;25.97;;;13.67;;
75450;SDS011;64029;48.244;9.188;2022-12-13T08:36:07;23.57;;;12.00;;
75450;SDS011;64029;48.244;9.188;2022-12-13T08:38:35;26.33;;;13.57;;
75450;SDS011;64029;48.244;9.188;2022-12-13T08:41:02;25.30;;;13.50;;
75450;SDS011;64029;48.244;9.188;2022-12-13T08:43:31;23.50;;;12.97;;
75450;SDS011;64029;48.244;9.188;2022-12-13T08:45:59;34.53;;;13.57;;
75450;SDS011;64029;48.244;9.188;2022-12-13T08:48:26;32.33;;;17.30;;
75450;SDS011;64029;48.244;9.188;2022-12-13T08:50:53;40.70;;;17.37;;
75450;SDS011;64029;48.244;9.188;2022-12-13T08:53:20;39.83;;;18.30;;
75450;SDS011;64029;48.244;9.188;2022-12-13T08:55:46;52.50;;;20.40;;
75450;SDS011;64029;48.244;9.188;2022-12-13T08:58:13;39.73;;;19.90;;
75450;SDS011;64029;48.244;9.188;2022-12-13T09:00:41;42.87;;;18.17;;
75450;SDS011;64029;48.244;9.188;2022-12-13T09:03:09;35.30;;;16.43;;
75450;SDS011;64029;48.244;9.188;2022-12-13T09:05:36;34.83;;;17.47;;
75450;SDS011;64029;48.244;9.188;2022-12-13T09:08:03;39.57;;;16.90;;
75450;SDS011;64029;48.244;9.188;2022-12-13T09:10:30;44.53;;;19.30;;
75450;SDS011;64029;48.244;9.188;2022-12-13T09:12:57;34.93;;;18.90;;
75450;SDS011;64029;48.244;9.188;2022-12-13T09:15:25;35.33;;;17.40;;
75450;SDS011;64029;48.244;9.188;2022-12-13T09:17:53;28.67;;;16.27;;
75450;SDS011;64029;48.244;9.188;2022-12-13T09:20:20;34.57;;;17.10;;
75450;SDS011;64029;48.244;9.188;2022-12-13T09:22:47;28.40;;;16.37;;
75450;SDS011;64029;48.244;9.188;2022-12-13T09:25:14;51.03;;;15.20;;
75450;SDS011;64029;48.244;9.188;2022-12-13T09:27:41;34.07;;;15.70;;
75450;SDS011;64029;48.244;9.188;2022-12-13T09:30:08;28.37;;;14.40;;
75450;SDS011;64029;48.244;9.188;2022-12-13T09:32:38;30.20;;;14.53;;
75450;SDS011;64029;48.244;9.188;2022-12-13T09:35:07;19.67;;;11.60;;
75450;SDS011;64029;48.244;9.188;2022-12-13T09:37:34;18.87;;;11.83;;
75450;SDS011;64029;48.244;9.188;2022-12-13T09:40:01;22.23;;;10.83;;
75450;SDS011;64029;48.244;9.188;2022-12-13T09:42:28;16.60;;;9.07;;
75450;SDS011;64029;48.244;9.188;2022-12-13T09:45:02;17.67;;;9.73;;
75450;SDS011;64029;48.244;9.188;2022-12-13T09:47:32;17.63;;;9.20;;
75450;SDS011;64029;48.244;9.188;2022-12-13T09:50:04;17.00;;;8.70;;
75450;SDS011;64029;48.244;9.188;2022-12-13T09:52:35;20.33;;;8.87;;
75450;SDS011;64029;48.244;9.188;2022-12-13T09:55:06;15.23;;;7.67;;
75450;SDS011;64029;48.244;9.188;2022-12-13T09:57:44;17.10;;;9.10;;
75450;SDS011;64029;48.244;9.188;2022-12-13T10:00:13;14.13;;;7.93;;
75450;SDS011;64029;48.244;9.188;2022-12-13T10:02:43;18.93;;;8.03;;
75450;SDS011;64029;48.244;9.188;2022-12-13T10:05:24;15.83;;;9.50;;
75450;SDS011;64029;48.244;9.188;2022-12-13T10:07:54;19.13;;;10.20;;
75450;SDS011;64029;48.244;9.188;2022-12-13T10:10:24;25.47;;;12.47;;
75450;SDS011;64029;48.244;9.188;2022-12-13T10:12:54;28.20;;;12.53;;
75450;SDS011;64029;48.244;9.188;2022-12-13T10:15:33;35.67;;;16.97;;
75450;SDS011;64029;48.244;9.188;2022-12-13T10:18:04;30.50;;;14.73;;
75450;SDS011;64029;48.244;9.188;2022-12-13T10:20:33;29.53;;;13.43;;
75450;SDS011;64029;48.244;9.188;2022-12-13T10:23:01;22.03;;;12.73;;
75450;SDS011;64029;48.244;9.188;2022-12-13T10:25:44;25.90;;;13.37;;
75450;SDS011;64029;48.244;9.188;2022-12-13T10:28:14;21.93;;;10.07;;
75450;SDS011;64029;48.244;9.188;2022-12-13T10:30:43;16.47;;;8.93;;
75450;SDS011;64029;48.244;9.188;2022-12-13T10:33:21;19.33;;;10.60;;
75450;SDS011;64029;48.244;9.188;2022-12-13T10:36:07;18.90;;;10.40;;
75450;SDS011;64029;48.244;9.188;2022-12-13T10:38:40;18.20;;;9.13;;
75450;SDS011;64029;48.244;9.188;2022-12-13T10:41:26;18.30;;;8.70;;
75450;SDS011;64029;48.244;9.188;2022-12-13T10:44:08;17.60;;;8.93;;
75450;SDS011;64029;48.244;9.188;2022-12-13T10:46:48;18.97;;;9.40;;
75450;SDS011;64029;48.244;9.188;2022-12-13T10:49:18;15.90;;;8.90;;
75450;SDS011;64029;48.244;9.188;2022-12-13T10:51:49;13.83;;;7.53;;
75450;SDS011;64029;48.244;9.188;2022-12-13T10:54:24;16.83;;;9.30;;
75450;SDS011;64029;48.244;9.188;2022-12-13T10:56:53;16.30;;;8.60;;
75450;SDS011;64029;48.244;9.188;2022-12-13T10:59:31;14.10;;;8.60;;
75450;SDS011;64029;48.244;9.188;2022-12-13T11:02:00;18.13;;;9.13;;
75450;SDS011;64029;48.244;9.188;2022-12-13T11:04:45;16.90;;;8.10;;
75450;SDS011;64029;48.244;9.188;2022-12-13T11:07:21;16.50;;;8.43;;
75450;SDS011;64029;48.244;9.188;2022-12-13T11:09:50;12.37;;;6.70;;
75450;SDS011;64029;48.244;9.188;2022-12-13T11:12:17;14.83;;;7.70;;
75450;SDS011;64029;48.244;9.188;2022-12-13T11:14:47;13.10;;;7.37;;
75450;SDS011;64029;48.244;9.188;2022-12-13T11:17:19;15.60;;;7.50;;
75450;SDS011;64029;48.244;9.188;2022-12-13T11:19:47;14.97;;;7.90;;
75450;SDS011;64029;48.244;9.188;2022-12-13T11:22:18;23.03;;;12.40;;
75450;SDS011;64029;48.244;9.188;2022-12-13T11:24:48;23.93;;;11.97;;
75450;SDS011;64029;48.244;9.188;2022-12-13T11:27:32;22.50;;;11.67;;
75450;SDS011;64029;48.244;9.188;2022-12-13T11:30:14;18.23;;;8.93;;
75450;SDS011;64029;48.244;9.188;2022-12-13T11:32:58;15.33;;;8.67;;
75450;SDS011;64029;48.244;9.188;2022-12-13T11:35:36;19.30;;;10.60;;
75450;SDS011;64029;48.244;9.188;2022-12-13T11:38:19;18.80;;;11.40;;
75450;SDS011;64029;48.244;9.188;2022-12-13T11:40:54;17.63;;;10.40;;
75450;SDS011;64029;48.244;9.188;2022-12-13T11:43:24;21.77;;;10.73;;
75450;SDS011;64029;48.244;9.188;2022-12-13T11:45:54;18.20;;;8.77;;
75450;SDS011;64029;48.244;9.188;2022-12-13T11:48:24;17.60;;;10.03;;
75450;SDS011;64029;48.244;9.188;2022-12-13T11:50:57;17.77;;;9.23;;
75450;SDS011;64029;48.244;9.188;2022-12-13T11:53:29;17.53;;;8.40;;
75450;SDS011;64029;48.244;9.188;2022-12-13T11:56:02;13.63;;;8.43;;
75450;SDS011;64029;48.244;9.188;2022-12-13T11:58:32;15.20;;;8.90;;
75450;SDS011;64029;48.244;9.188;2022-12-13T12:01:08;21.97;;;11.77;;
75450;SDS011;64029;48.244;9.188;2022-12-13T12:03:39;20.53;;;11.53;;
75450;SDS011;64029;48.244;9.188;2022-12-13T12:06:11;22.57;;;13.73;;
75450;SDS011;64029;48.244;9.188;2022-12-13T12:08:45;18.13;;;11.70;;
75450;SDS011;64029;48.244;9.188;2022-12-13T12:11:19;11.87;;;9.17;;
75450;SDS011;64029;48.244;9.188;2022-12-13T12:13:52;17.77;;;9.40;;
75450;SDS011;64029;48.244;9.188;2022-12-13T12:16:27;16.70;;;8.80;;
75450;SDS011;64029;48.244;9.188;2022-12-13T12:19:00;13.17;;;8.17;;
75450;SDS011;64029;48.244;9.188;2022-12-13T12:21:31;12.37;;;7.40;;
75450;SDS011;64029;48.244;9.188;2022-12-13T12:24:14;20.27;;;9.63;;
75450;SDS011;64029;48.244;9.188;2022-12-13T12:26:50;17.77;;;8.80;;
75450;SDS011;64029;48.244;9.188;2022-12-13T12:29:36;13.30;;;8.23;;
75450;SDS011;64029;48.244;9.188;2022-12-13T12:32:24;15.50;;;8.40;;
75450;SDS011;64029;48.244;9.188;2022-12-13T12:34:59;14.27;;;8.10;;
75450;SDS011;64029;48.244;9.188;2022-12-13T12:37:46;17.70;;;8.40;;
75450;SDS011;64029;48.244;9.188;2022-12-13T12:40:30;14.37;;;8.40;;
75450;SDS011;64029;48.244;9.188;2022-12-13T12:43:09;14.23;;;8.30;;
75450;SDS011;64029;48.244;9.188;2022-12-13T12:45:48;15.77;;;8.27;;
75450;SDS011;64029;48.244;9.188;2022-12-13T12:48:29;17.47;;;8.77;;
75450;SDS011;64029;48.244;9.188;2022-12-13T12:51:12;19.57;;;8.17;;
75450;SDS011;64029;48.244;9.188;2022-12-13T12:53:46;12.73;;;7.90;;
75450;SDS011;64029;48.244;9.188;2022-12-13T12:56:26;13.20;;;8.40;;
75450;SDS011;64029;48.244;9.188;2022-12-13T12:59:06;28.30;;;7.97;;
75450;SDS011;64029;48.244;9.188;2022-12-13T13:01:45;20.20;;;7.40;;
75450;SDS011;64029;48.244;9.188;2022-12-13T13:04:19;17.63;;;7.57;;
75450;SDS011;64029;48.244;9.188;2022-12-13T13:06:51;17.13;;;7.83;;
75450;SDS011;64029;48.244;9.188;2022-12-13T13:09:23;15.90;;;8.13;;
75450;SDS011;64029;48.244;9.188;2022-12-13T13:11:52;12.80;;;7.47;;
75450;SDS011;64029;48.244;9.188;2022-12-13T13:14:26;15.80;;;7.60;;
75450;SDS011;64029;48.244;9.188;2022-12-13T13:16:55;10.93;;;6.43;;
75450;SDS011;64029;48.244;9.188;2022-12-13T13:25:00;13.07;;;7.27;;
75450;SDS011;64029;48.244;9.188;2022-12-13T13:27:45;12.93;;;6.43;;
75450;SDS011;64029;48.244;9.188;2022-12-13T13:30:16;13.67;;;6.80;;
75450;SDS011;64029;48.244;9.188;2022-12-13T13:32:45;14.13;;;6.37;;
75450;SDS011;64029;48.244;9.188;2022-12-13T13:44:32;13.30;;;6.40;;
75450;SDS011;64029;48.244;9.188;2022-12-13T13:47:09;10.87;;;6.40;;
75450;SDS011;64029;48.244;9.188;2022-12-13T13:49:37;11.27;;;6.50;;
75450;SDS011;64029;48.244;9.188;2022-12-13T13:52:15;11.23;;;7.00;;
75450;SDS011;64029;48.244;9.188;2022-12-13T13:57:51;16.70;;;7.20;;
75450;SDS011;64029;48.244;9.188;2022-12-13T14:00:48;15.00;;;7.43;;
75450;SDS011;64029;48.244;9.188;2022-12-13T14:09:53;14.53;;;7.17;;
75450;SDS011;64029;48.244;9.188;2022-12-13T14:21:47;13.83;;;6.80;;
75450;SDS011;64029;48.244;9.188;2022-12-13T14:24:24;12.13;;;7.10;;
75450;SDS011;64029;48.244;9.188;2022-12-13T14:27:06;15.30;;;7.20;;
75450;SDS011;64029;48.244;9.188;2022-12-13T14:29:43;12.80;;;7.20;;
75450;SDS011;64029;48.244;9.188;2022-12-13T14:32:16;12.87;;;7.67;;
75450;SDS011;64029;48.244;9.188;2022-12-13T14:34:47;14.90;;;7.63;;
75450;SDS011;64029;48.244;9.188;2022-12-13T14:37:19;14.47;;;7.90;;
75450;SDS011;64029;48.244;9.188;2022-12-13T14:39:51;12.43;;;8.07;;
75450;SDS011;64029;48.244;9.188;2022-12-13T14:42:20;14.43;;;7.73;;
75450;SDS011;64029;48.244;9.188;2022-12-13T14:44:49;14.10;;;8.10;;
75450;SDS011;64029;48.244;9.188;2022-12-13T14:47:16;17.87;;;9.20;;
75450;SDS011;64029;48.244;9.188;2022-12-13T14:49:45;14.30;;;8.60;;
75450;SDS011;64029;48.244;9.188;2022-12-13T14:52:17;17.73;;;8.50;;
75450;SDS011;64029;48.244;9.188;2022-12-13T14:54:49;13.90;;;7.97;;
75450;SDS011;64029;48.244;9.188;2022-12-13T14:57:19;17.10;;;8.77;;
75450;SDS011;64029;48.244;9.188;2022-12-13T14:59:49;14.00;;;9.17;;
75450;SDS011;64029;48.244;9.188;2022-12-13T15:02:18;13.90;;;8.57;;
75450;SDS011;64029;48.244;9.188;2022-12-13T15:04:46;13.27;;;7.80;;
75450;SDS011;64029;48.244;9.188;2022-12-13T15:07:16;15.47;;;9.07;;
75450;SDS011;64029;48.244;9.188;2022-12-13T15:09:49;24.17;;;9.63;;
75450;SDS011;64029;48.244;9.188;2022-12-13T15:12:20;14.43;;;9.43;;
75450;SDS011;64029;48.244;9.188;2022-12-13T15:14:49;18.20;;;10.33;;
75450;SDS011;64029;48.244;9.188;2022-12-13T15:17:25;23.40;;;9.87;;
75450;SDS011;64029;48.244;9.188;2022-12-13T15:19:54;14.87;;;9.87;;
75450;SDS011;64029;48.244;9.188;2022-12-13T15:22:23;18.30;;;9.73;;